createdAt,value
2022-11-20T00:02:09.106Z,-4.88
2022-11-20T00:04:36.808Z,-4.97
2022-11-20T00:07:04.489Z,-4.87
2022-11-20T00:09:32.214Z,-4.84
2022-11-20T00:11:59.910Z,-4.79
2022-11-20T00:14:27.544Z,-4.83
2022-11-20T00:16:56.892Z,-4.71
2022-11-20T00:19:24.601Z,-4.69
2022-11-20T00:21:54.722Z,-4.63
2022-11-20T00:24:22.348Z,-4.61
2022-11-20T00:26:50.001Z,-4.57
2022-11-20T00:29:17.993Z,-4.49
2022-11-20T00:31:45.884Z,-4.36
2022-11-20T00:34:15.112Z,-4.33
2022-11-20T00:36:42.805Z,-4.35
2022-11-20T00:39:10.477Z,-4.31
2022-11-20T00:41:38.122Z,-4.23
2022-11-20T00:44:06.050Z,-4.31
2022-11-20T00:46:33.726Z,-4.24
2022-11-20T00:49:01.461Z,-4.30
2022-11-20T00:51:30.637Z,-4.22
2022-11-20T00:53:59.005Z,-4.20
2022-11-20T00:56:26.702Z,-4.20
2022-11-20T00:58:54.368Z,-4.27
2022-11-20T01:01:25.069Z,-4.24
2022-11-20T01:03:54.672Z,-4.25
2022-11-20T01:06:24.214Z,-4.26
2022-11-20T01:08:55.829Z,-4.30
2022-11-20T01:11:26.055Z,-4.33
2022-11-20T01:13:54.577Z,-4.35
2022-11-20T01:16:26.946Z,-4.32
2022-11-20T01:18:57.749Z,-4.26
2022-11-20T01:21:27.047Z,-4.31
2022-11-20T01:23:56.236Z,-4.42
2022-11-20T01:26:26.608Z,-4.38
2022-11-20T01:28:57.335Z,-4.43
2022-11-20T01:31:27.668Z,-4.45
2022-11-20T01:33:59.024Z,-4.56
2022-11-20T01:36:29.371Z,-4.42
2022-11-20T01:39:02.299Z,-4.40
2022-11-20T01:41:49.648Z,-4.46
2022-11-20T01:44:20.000Z,-4.50
2022-11-20T01:46:58.990Z,-4.54
2022-11-20T01:49:31.633Z,-4.58
2022-11-20T01:52:01.903Z,-4.64
2022-11-20T01:54:38.071Z,-4.66
2022-11-20T01:57:09.431Z,-4.65
2022-11-20T01:59:40.122Z,-4.61
2022-11-20T02:02:07.814Z,-4.66
2022-11-20T02:04:35.700Z,-4.64
2022-11-20T02:07:06.067Z,-4.66
2022-11-20T02:09:35.187Z,-4.62
2022-11-20T02:12:03.316Z,-4.57
2022-11-20T02:14:30.383Z,-4.57
2022-11-20T02:16:58.152Z,-4.47
2022-11-20T02:19:29.661Z,-4.59
2022-11-20T02:22:04.240Z,-4.44
2022-11-20T02:24:33.630Z,-4.49
2022-11-20T02:27:05.428Z,-4.64
2022-11-20T02:29:37.603Z,-4.66
2022-11-20T02:32:05.884Z,-4.71
2022-11-20T02:34:34.044Z,-4.64
2022-11-20T02:37:01.872Z,-4.78
2022-11-20T02:39:30.467Z,-4.70
2022-11-20T02:41:59.508Z,-4.77
2022-11-20T02:44:27.914Z,-4.89
2022-11-20T02:47:02.002Z,-4.83
2022-11-20T02:49:29.705Z,-4.79
2022-11-20T02:51:57.412Z,-4.78
2022-11-20T02:54:25.690Z,-4.71
2022-11-20T02:56:53.588Z,-4.78
2022-11-20T02:59:22.904Z,-4.71
2022-11-20T03:01:50.844Z,-4.66
2022-11-20T03:04:18.687Z,-4.66
2022-11-20T03:06:46.357Z,-4.59
2022-11-20T03:09:14.907Z,-4.60
2022-11-20T03:11:42.532Z,-4.60
2022-11-20T03:14:10.246Z,-4.60
2022-11-20T03:16:39.275Z,-4.68
2022-11-20T03:19:06.979Z,-4.69
2022-11-20T03:21:35.721Z,-4.70
2022-11-20T03:24:04.103Z,-4.60
2022-11-20T03:26:31.840Z,-4.73
2022-11-20T03:29:01.328Z,-4.66
2022-11-20T03:31:31.504Z,-4.70
2022-11-20T03:34:01.123Z,-4.71
2022-11-20T03:36:29.167Z,-4.58
2022-11-20T03:38:58.112Z,-4.65
2022-11-20T03:41:27.634Z,-4.49
2022-11-20T03:43:57.077Z,-4.45
2022-11-20T03:46:25.363Z,-4.26
2022-11-20T03:48:53.352Z,-4.25
2022-11-20T03:51:24.204Z,-4.17
2022-11-20T03:53:54.385Z,-4.09
2022-11-20T03:56:25.691Z,-4.00
2022-11-20T03:58:53.330Z,-3.92
2022-11-20T04:01:23.235Z,-3.97
2022-11-20T04:03:51.655Z,-3.97
2022-11-20T04:06:21.725Z,-3.89
2022-11-20T04:08:53.983Z,-3.80
2022-11-20T04:11:23.884Z,-3.79
2022-11-20T04:13:53.732Z,-3.87
2022-11-20T04:16:22.156Z,-3.78
2022-11-20T04:18:53.849Z,-3.76
2022-11-20T04:21:21.703Z,-3.72
2022-11-20T04:23:50.893Z,-3.70
2022-11-20T04:26:19.027Z,-3.64
2022-11-20T04:28:46.776Z,-3.71
2022-11-20T04:31:16.086Z,-3.66
2022-11-20T04:33:44.020Z,-3.57
2022-11-20T04:36:13.988Z,-3.54
2022-11-20T04:38:42.318Z,-3.52
2022-11-20T04:41:16.501Z,-3.56
2022-11-20T04:43:48.006Z,-3.40
2022-11-20T04:46:15.606Z,-3.37
2022-11-20T04:48:43.360Z,-3.35
2022-11-20T04:51:11.040Z,-3.37
2022-11-20T04:53:38.625Z,-3.39
2022-11-20T04:56:08.273Z,-3.38
2022-11-20T04:58:37.326Z,-3.38
2022-11-20T05:01:05.476Z,-3.42
2022-11-20T05:03:33.267Z,-3.45
2022-11-20T05:06:02.607Z,-3.56
2022-11-20T05:08:30.487Z,-3.46
2022-11-20T05:11:02.145Z,-3.46
2022-11-20T05:13:30.218Z,-3.50
2022-11-20T05:16:03.750Z,-3.50
2022-11-20T05:18:31.440Z,-3.52
2022-11-20T05:21:00.095Z,-3.55
2022-11-20T05:23:28.548Z,-3.52
2022-11-20T05:25:59.323Z,-3.47
2022-11-20T05:28:27.860Z,-3.49
2022-11-20T05:30:55.876Z,-3.43
2022-11-20T05:33:24.896Z,-3.45
2022-11-20T05:35:52.560Z,-3.40
2022-11-20T05:38:20.175Z,-3.40
2022-11-20T05:40:47.808Z,-3.37
2022-11-20T05:43:15.410Z,-3.38
2022-11-20T05:45:43.117Z,-3.26
2022-11-20T05:48:10.749Z,-3.33
2022-11-20T05:50:39.772Z,-3.36
2022-11-20T05:53:07.418Z,-3.37
2022-11-20T05:55:35.327Z,-3.38
2022-11-20T05:58:02.974Z,-3.32
2022-11-20T06:00:30.630Z,-3.27
2022-11-20T06:02:58.672Z,-3.33
2022-11-20T06:05:26.344Z,-3.38
2022-11-20T06:07:55.403Z,-3.37
2022-11-20T06:10:23.032Z,-3.26
2022-11-20T06:12:50.633Z,-3.24
2022-11-20T06:15:18.447Z,-3.25
2022-11-20T06:17:46.094Z,-3.16
2022-11-20T06:20:13.728Z,-3.16
2022-11-20T06:22:41.328Z,-3.17
2022-11-20T06:25:10.629Z,-3.23
2022-11-20T06:27:38.317Z,-3.14
2022-11-20T06:30:06.767Z,-3.20
2022-11-20T06:32:34.976Z,-3.17
2022-11-20T06:35:02.804Z,-3.11
2022-11-20T06:37:30.453Z,-3.17
2022-11-20T06:39:58.096Z,-3.18
2022-11-20T06:42:27.132Z,-3.25
2022-11-20T06:44:54.788Z,-3.19
2022-11-20T06:47:22.402Z,-3.14
2022-11-20T06:49:50.043Z,-3.24
2022-11-20T06:52:20.020Z,-3.32
2022-11-20T06:54:47.665Z,-3.20
2022-11-20T06:57:15.296Z,-3.20
2022-11-20T06:59:44.205Z,-3.26
2022-11-20T07:02:13.067Z,-3.27
2022-11-20T07:04:40.847Z,-3.28
2022-11-20T07:07:08.571Z,-3.29
2022-11-20T07:09:36.312Z,-3.44
2022-11-20T07:12:10.602Z,-3.44
2022-11-20T07:14:38.279Z,-3.49
2022-11-20T07:17:07.344Z,-3.53
2022-11-20T07:19:34.985Z,-3.57
2022-11-20T07:22:02.654Z,-3.65
2022-11-20T07:24:30.296Z,-3.50
2022-11-20T07:26:57.954Z,-3.37
2022-11-20T07:29:25.832Z,-3.55
2022-11-20T07:31:53.507Z,-3.48
2022-11-20T07:34:22.729Z,-3.59
2022-11-20T07:36:50.432Z,-3.67
2022-11-20T07:39:18.271Z,-3.62
2022-11-20T07:41:46.033Z,-3.62
2022-11-20T07:44:13.686Z,-3.71
2022-11-20T07:46:41.356Z,-3.75
2022-11-20T07:49:08.984Z,-3.62
2022-11-20T07:51:38.052Z,-3.58
2022-11-20T07:54:05.885Z,-3.65
2022-11-20T07:56:33.555Z,-3.71
2022-11-20T07:59:01.256Z,-3.72
2022-11-20T08:01:28.934Z,-3.56
2022-11-20T08:03:56.572Z,-3.63
2022-11-20T08:06:25.672Z,-3.66
2022-11-20T08:08:54.723Z,-3.62
2022-11-20T08:11:39.788Z,-3.64
2022-11-20T08:14:16.774Z,-3.56
2022-11-20T08:16:46.444Z,-3.53
2022-11-20T08:19:14.687Z,-3.48
2022-11-20T08:21:42.852Z,-3.43
2022-11-20T08:24:12.687Z,-3.36
2022-11-20T08:26:41.480Z,-3.36
2022-11-20T08:29:09.547Z,-3.29
2022-11-20T08:31:37.580Z,-3.28
2022-11-20T08:34:09.187Z,-3.22
2022-11-20T08:36:37.630Z,-3.11
2022-11-20T08:39:05.483Z,-3.11
2022-11-20T08:41:34.542Z,-3.07
2022-11-20T08:44:03.573Z,-3.05
2022-11-20T08:46:36.360Z,-2.83
2022-11-20T08:49:04.531Z,-2.75
2022-11-20T08:51:32.687Z,-2.71
2022-11-20T08:54:00.364Z,-2.61
2022-11-20T08:56:28.046Z,-2.48
2022-11-20T09:01:44.946Z,-2.27
2022-11-20T09:04:15.239Z,-2.18
2022-11-20T09:06:42.920Z,-1.99
2022-11-20T09:09:10.589Z,-1.82
2022-11-20T09:11:38.217Z,-1.79
2022-11-20T09:14:07.321Z,-1.59
2022-11-20T09:16:35.042Z,-1.52
2022-11-20T09:21:50.424Z,-1.15
2022-11-20T09:24:18.359Z,-0.94
2022-11-20T09:26:46.214Z,-0.77
2022-11-20T09:29:15.333Z,-0.71
2022-11-20T09:31:43.016Z,-0.68
2022-11-20T09:34:11.033Z,-0.58
2022-11-20T09:36:38.997Z,-0.50
2022-11-20T09:39:06.662Z,-0.43
2022-11-20T09:41:55.210Z,-0.32
2022-11-20T09:44:40.315Z,-0.19
2022-11-20T09:47:13.313Z,-0.05
2022-11-20T09:49:54.301Z,0.08
2022-11-20T09:52:28.716Z,0.19
2022-11-20T09:54:57.066Z,0.33
2022-11-20T09:57:37.771Z,0.47
2022-11-20T10:00:11.966Z,0.60
2022-11-20T10:02:45.083Z,0.73
2022-11-20T10:05:17.660Z,0.84
2022-11-20T10:07:49.861Z,0.93
2022-11-20T10:10:20.341Z,0.98
2022-11-20T10:13:03.425Z,1.07
2022-11-20T10:15:39.134Z,1.18
2022-11-20T10:18:19.714Z,1.21
2022-11-20T10:20:56.550Z,1.24
2022-11-20T10:23:48.368Z,1.36
2022-11-20T10:26:24.053Z,1.46
2022-11-20T10:29:11.946Z,1.53
2022-11-20T10:31:43.597Z,1.63
2022-11-20T10:34:23.498Z,1.73
2022-11-20T10:36:56.720Z,1.80
2022-11-20T10:39:34.391Z,1.93
2022-11-20T10:42:02.940Z,2.03
2022-11-20T10:44:53.677Z,2.01
2022-11-20T10:47:24.372Z,2.23
2022-11-20T10:49:55.043Z,2.29
2022-11-20T10:52:35.037Z,2.41
2022-11-20T10:55:14.025Z,2.21
2022-11-20T10:57:54.884Z,2.25
2022-11-20T11:00:22.803Z,2.10
2022-11-20T11:02:53.985Z,2.17
2022-11-20T11:05:39.955Z,2.33
2022-11-20T11:08:13.094Z,2.40
2022-11-20T11:10:48.684Z,2.54
2022-11-20T11:13:23.856Z,2.62
2022-11-20T11:15:52.193Z,2.71
2022-11-20T11:18:29.134Z,2.81
2022-11-20T11:20:58.567Z,2.83
2022-11-20T11:23:34.124Z,2.75
2022-11-20T11:26:03.828Z,2.63
2022-11-20T11:28:31.605Z,2.72
2022-11-20T11:30:59.369Z,2.70
2022-11-20T11:33:30.451Z,2.94
2022-11-20T11:36:01.553Z,3.04
2022-11-20T11:38:37.221Z,3.04
2022-11-20T11:41:06.421Z,2.95
2022-11-20T11:43:53.658Z,3.04
2022-11-20T11:46:31.466Z,3.13
2022-11-20T11:49:03.219Z,3.22
2022-11-20T11:51:37.454Z,3.31
2022-11-20T11:54:16.261Z,3.28
2022-11-20T11:56:44.798Z,3.25
2022-11-20T11:59:18.775Z,3.30
2022-11-20T12:01:53.613Z,3.30
2022-11-20T12:04:37.728Z,3.38
2022-11-20T12:07:31.395Z,3.48
2022-11-20T12:10:02.450Z,3.58
2022-11-20T12:12:37.002Z,3.54
2022-11-20T12:15:06.785Z,3.59
2022-11-20T12:17:34.748Z,3.49
2022-11-20T12:20:03.912Z,3.56
2022-11-20T12:22:42.685Z,3.55
2022-11-20T12:25:16.569Z,3.67
2022-11-20T12:28:02.833Z,3.61
2022-11-20T12:30:32.644Z,3.67
2022-11-20T12:33:21.053Z,3.70
2022-11-20T12:36:03.965Z,3.58
2022-11-20T12:39:10.424Z,3.57
2022-11-20T12:42:17.966Z,3.54
2022-11-20T12:45:12.966Z,3.58
2022-11-20T12:47:59.358Z,3.48
2022-11-20T12:51:00.135Z,3.48
2022-11-20T12:53:35.934Z,3.38
2022-11-20T12:56:15.760Z,3.45
2022-11-20T12:58:51.304Z,3.39
2022-11-20T13:01:41.884Z,3.32
2022-11-20T13:04:20.268Z,3.34
2022-11-20T13:06:48.513Z,3.36
2022-11-20T13:09:22.831Z,3.33
2022-11-20T13:12:02.389Z,3.41
2022-11-20T13:14:38.513Z,3.32
2022-11-20T13:17:11.628Z,3.36
2022-11-20T13:19:40.036Z,3.31
2022-11-20T13:22:08.151Z,3.43
2022-11-20T13:24:37.237Z,3.38
2022-11-20T13:27:07.664Z,3.36
2022-11-20T13:29:36.636Z,3.41
2022-11-20T13:32:08.177Z,3.28
2022-11-20T13:34:37.015Z,3.40
2022-11-20T13:37:05.636Z,3.28
2022-11-20T13:39:34.923Z,3.26
2022-11-20T13:42:22.972Z,3.08
2022-11-20T13:44:55.923Z,3.23
2022-11-20T13:47:25.533Z,3.23
2022-11-20T13:49:55.333Z,3.25
2022-11-20T13:52:44.592Z,3.24
2022-11-20T13:55:21.575Z,3.16
2022-11-20T13:58:08.296Z,3.17
2022-11-20T14:00:46.464Z,3.13
2022-11-20T14:03:37.951Z,3.14
2022-11-20T14:06:16.052Z,3.17
2022-11-20T14:08:47.708Z,3.19
2022-11-20T14:11:18.359Z,3.16
2022-11-20T14:14:00.242Z,3.17
2022-11-20T14:16:30.436Z,3.19
2022-11-20T14:18:59.602Z,3.18
2022-11-20T14:21:30.383Z,3.17
2022-11-20T14:24:06.283Z,3.04
2022-11-20T14:26:35.008Z,3.14
2022-11-20T14:29:04.422Z,3.13
2022-11-20T14:31:33.026Z,3.06
2022-11-20T14:34:00.719Z,3.06
2022-11-20T14:36:29.507Z,3.08
2022-11-20T14:38:57.197Z,3.04
2022-11-20T14:41:26.171Z,3.05
2022-11-20T14:43:58.168Z,2.99
2022-11-20T14:46:28.112Z,2.99
2022-11-20T14:48:57.937Z,2.93
2022-11-20T14:51:30.133Z,2.97
2022-11-20T14:53:57.983Z,2.94
2022-11-20T14:56:26.516Z,2.93
2022-11-20T14:59:00.767Z,2.75
2022-11-20T15:01:31.904Z,2.71
2022-11-20T15:04:03.505Z,2.65
2022-11-20T15:06:32.281Z,2.71
2022-11-20T15:09:00.099Z,2.71
2022-11-20T15:11:32.743Z,2.65
2022-11-20T15:14:05.047Z,2.69
2022-11-20T15:16:34.934Z,2.44
2022-11-20T15:19:20.775Z,2.55
2022-11-20T15:21:48.771Z,2.58
2022-11-20T15:24:16.534Z,2.40
2022-11-20T15:26:44.969Z,2.45
2022-11-20T15:29:14.553Z,2.51
2022-11-20T15:31:45.816Z,2.40
2022-11-20T15:34:14.405Z,2.45
2022-11-20T15:36:42.719Z,2.39
2022-11-20T15:39:12.326Z,2.41
2022-11-20T15:41:40.855Z,2.42
2022-11-20T15:44:08.557Z,2.41
2022-11-20T15:46:41.032Z,2.34
2022-11-20T15:49:14.074Z,2.39
2022-11-20T15:51:44.866Z,2.37
2022-11-20T15:54:14.067Z,2.39
2022-11-20T15:56:41.799Z,2.33
2022-11-20T15:59:09.553Z,2.31
2022-11-20T16:01:37.453Z,2.20
2022-11-20T16:04:07.755Z,2.33
2022-11-20T16:06:36.849Z,2.28
2022-11-20T16:09:04.849Z,2.29
2022-11-20T16:11:32.556Z,2.16
2022-11-20T16:14:17.576Z,2.22
2022-11-20T16:16:45.297Z,2.20
2022-11-20T16:19:13.836Z,2.26
2022-11-20T16:21:43.593Z,2.30
2022-11-20T16:24:13.748Z,2.15
2022-11-20T16:26:42.499Z,2.15
2022-11-20T16:29:10.997Z,2.25
2022-11-20T16:31:39.072Z,2.13
2022-11-20T16:34:12.318Z,2.10
2022-11-20T16:36:43.479Z,2.14
2022-11-20T16:39:11.977Z,2.19
2022-11-20T16:41:39.943Z,2.13
2022-11-20T16:44:10.151Z,2.19
2022-11-20T16:46:39.082Z,2.24
2022-11-20T16:49:09.316Z,2.21
2022-11-20T16:51:37.693Z,2.26
2022-11-20T16:54:08.999Z,2.24
2022-11-20T16:56:37.592Z,2.33
2022-11-20T16:59:05.604Z,2.22
2022-11-20T17:01:34.411Z,2.28
2022-11-20T17:04:05.313Z,2.36
2022-11-20T17:06:34.515Z,2.38
2022-11-20T17:09:02.593Z,2.44
2022-11-20T17:11:33.673Z,2.44
2022-11-20T17:14:02.328Z,2.45
2022-11-20T17:16:31.075Z,2.46
2022-11-20T17:19:03.180Z,2.49
2022-11-20T17:21:31.626Z,2.53
2022-11-20T17:24:02.571Z,2.46
2022-11-20T17:26:32.339Z,2.58
2022-11-20T17:29:01.810Z,2.62
2022-11-20T17:31:31.083Z,2.62
2022-11-20T17:34:00.330Z,2.65
2022-11-20T17:36:29.632Z,2.66
2022-11-20T17:38:57.382Z,2.71
2022-11-20T17:41:27.037Z,2.75
2022-11-20T17:43:57.603Z,2.78
2022-11-20T17:46:26.884Z,2.78
2022-11-20T17:48:56.181Z,2.77
2022-11-20T17:51:25.903Z,2.84
2022-11-20T17:53:55.652Z,2.83
2022-11-20T17:56:41.347Z,2.87
2022-11-20T17:59:11.973Z,2.82
2022-11-20T18:01:40.391Z,2.84
2022-11-20T18:04:08.261Z,2.86
2022-11-20T18:06:36.202Z,2.85
2022-11-20T18:09:06.282Z,2.89
2022-11-20T18:11:35.832Z,2.90
2022-11-20T18:14:23.441Z,2.95
2022-11-20T18:16:54.978Z,2.85
2022-11-20T18:19:28.637Z,2.84
2022-11-20T18:22:00.068Z,2.89
2022-11-20T18:24:27.801Z,2.90
2022-11-20T18:26:55.566Z,2.99
2022-11-20T18:29:23.603Z,3.09
2022-11-20T18:31:53.055Z,3.07
2022-11-20T18:34:20.852Z,3.08
2022-11-20T18:36:48.601Z,2.91
2022-11-20T18:39:17.324Z,3.14
2022-11-20T18:42:02.573Z,3.09
2022-11-20T18:44:49.513Z,3.15
2022-11-20T18:47:20.458Z,3.27
2022-11-20T18:49:52.506Z,3.31
2022-11-20T18:52:22.726Z,3.32
2022-11-20T18:54:50.612Z,3.26
2022-11-20T18:57:19.147Z,3.34
2022-11-20T18:59:46.993Z,3.38
2022-11-20T19:02:16.076Z,3.43
2022-11-20T19:04:45.320Z,3.46
2022-11-20T19:07:13.519Z,3.35
2022-11-20T19:09:41.785Z,3.58
2022-11-20T19:12:11.060Z,3.58
2022-11-20T19:14:38.988Z,3.53
2022-11-20T19:17:07.948Z,3.59
2022-11-20T19:19:35.963Z,3.62
2022-11-20T19:22:05.440Z,3.53
2022-11-20T19:24:33.955Z,3.63
2022-11-20T19:27:02.360Z,3.67
2022-11-20T19:29:30.573Z,3.65
2022-11-20T19:31:59.250Z,3.44
2022-11-20T19:34:27.102Z,3.71
2022-11-20T19:36:54.998Z,3.69
2022-11-20T19:39:24.344Z,3.74
2022-11-20T19:41:52.293Z,3.76
2022-11-20T19:44:19.972Z,3.77
2022-11-20T19:46:47.777Z,3.76
2022-11-20T19:49:15.608Z,3.83
2022-11-20T19:51:47.821Z,3.85
2022-11-20T19:54:16.675Z,3.87
2022-11-20T19:56:47.642Z,3.89
2022-11-20T19:59:15.751Z,3.94
2022-11-20T20:01:43.564Z,3.95
2022-11-20T20:04:11.340Z,3.97
2022-11-20T20:06:40.241Z,3.95
2022-11-20T20:09:09.872Z,3.98
2022-11-20T20:11:37.926Z,3.98
2022-11-20T20:14:08.817Z,4.01
2022-11-20T20:16:37.230Z,4.03
2022-11-20T20:19:06.093Z,4.01
2022-11-20T20:21:36.308Z,4.00
2022-11-20T20:24:04.717Z,4.12
2022-11-20T20:26:33.693Z,4.16
2022-11-20T20:29:02.457Z,4.30
2022-11-20T20:31:33.220Z,4.42
2022-11-20T20:34:01.557Z,4.47
2022-11-20T20:36:29.316Z,4.66
2022-11-20T20:38:59.489Z,4.71
2022-11-20T20:41:27.527Z,4.75
2022-11-20T20:44:12.675Z,4.75
2022-11-20T20:46:42.215Z,4.75
2022-11-20T20:49:10.544Z,4.72
2022-11-20T20:51:38.337Z,4.72
2022-11-20T20:54:06.699Z,4.73
2022-11-20T20:56:34.413Z,4.73
2022-11-20T20:59:02.378Z,4.66
2022-11-20T21:01:30.277Z,4.67
2022-11-20T21:03:59.550Z,4.56
2022-11-20T21:06:27.561Z,4.61
2022-11-20T21:08:56.015Z,4.55
2022-11-20T21:11:23.957Z,4.38
2022-11-20T21:13:52.232Z,4.28
2022-11-20T21:16:22.314Z,4.31
2022-11-20T21:18:50.513Z,4.22
2022-11-20T21:21:37.660Z,4.06
2022-11-20T21:24:05.933Z,3.93
2022-11-20T21:26:33.584Z,3.69
2022-11-20T21:29:01.271Z,3.53
2022-11-20T21:31:31.585Z,3.50
2022-11-20T21:33:59.389Z,3.48
2022-11-20T21:36:30.203Z,3.44
2022-11-20T21:38:59.651Z,3.45
2022-11-20T21:41:28.733Z,3.48
2022-11-20T21:46:46.456Z,3.42
2022-11-20T21:49:15.393Z,3.35
2022-11-20T21:51:44.568Z,3.40
2022-11-20T21:54:12.569Z,3.52
2022-11-20T21:56:40.760Z,3.43
2022-11-20T21:59:12.155Z,3.35
2022-11-20T22:01:40.238Z,3.23
2022-11-20T22:04:08.428Z,3.34
2022-11-20T22:06:36.167Z,3.27
2022-11-20T22:09:05.344Z,3.28
2022-11-20T22:11:33.096Z,3.20
2022-11-20T22:14:18.097Z,3.28
2022-11-20T22:16:45.816Z,3.22
2022-11-20T22:19:16.424Z,3.18
2022-11-20T22:21:44.173Z,3.15
2022-11-20T22:24:16.189Z,3.13
2022-11-20T22:26:44.436Z,3.18
2022-11-20T22:29:15.731Z,3.16
2022-11-20T22:31:43.991Z,3.10
2022-11-20T22:34:12.988Z,3.15
2022-11-20T22:36:41.641Z,3.09
2022-11-20T22:39:09.749Z,3.05
2022-11-20T22:41:38.730Z,3.04
2022-11-20T22:44:09.686Z,2.95
2022-11-20T22:46:38.396Z,3.08
2022-11-20T22:49:08.495Z,3.03
2022-11-20T22:51:37.611Z,2.94
2022-11-20T22:54:06.223Z,2.90
2022-11-20T22:56:34.362Z,2.72
2022-11-20T22:59:03.948Z,2.56
2022-11-20T23:01:33.314Z,2.61
2022-11-20T23:04:02.811Z,2.62
2022-11-20T23:06:34.174Z,2.67
2022-11-20T23:09:02.518Z,2.54
2022-11-20T23:11:31.534Z,2.58
2022-11-20T23:14:01.234Z,2.62
2022-11-20T23:16:32.394Z,2.65
2022-11-20T23:19:02.328Z,2.58
2022-11-20T23:21:30.419Z,2.43
2022-11-20T23:23:59.459Z,2.42
2022-11-20T23:26:28.717Z,2.38
2022-11-20T23:28:58.677Z,2.45
2022-11-20T23:31:28.109Z,2.39
2022-11-20T23:33:57.521Z,2.21
2022-11-20T23:36:25.218Z,2.18
2022-11-20T23:38:53.033Z,2.18
2022-11-20T23:41:20.707Z,2.16
2022-11-20T23:43:48.509Z,2.14
2022-11-20T23:46:17.009Z,2.11
2022-11-20T23:48:45.861Z,2.13
2022-11-20T23:51:15.047Z,2.00
2022-11-20T23:53:42.844Z,2.01
